sensor_id;sensor_type;location;lat;lon;timestamp;P1;durP1;ratioP1;P2;durP2;ratioP2
68655;SDS011;55638;51.122;13.606;2023-04-28T00:01:10;6.35;;;5.40;;
68655;SDS011;55638;51.122;13.606;2023-04-28T00:02:42;7.53;;;5.43;;
68655;SDS011;55638;51.122;13.606;2023-04-28T00:04:14;7.40;;;5.47;;
68655;SDS011;55638;51.122;13.606;2023-04-28T00:05:47;7.32;;;5.78;;
68655;SDS011;55638;51.122;13.606;2023-04-28T00:07:20;9.27;;;5.82;;
68655;SDS011;55638;51.122;13.606;2023-04-28T00:08:51;6.55;;;5.93;;
68655;SDS011;55638;51.122;13.606;2023-04-28T00:10:23;6.53;;;5.80;;
68655;SDS011;55638;51.122;13.606;2023-04-28T00:11:56;7.28;;;6.15;;
68655;SDS011;55638;51.122;13.606;2023-04-28T00:13:27;7.53;;;5.63;;
68655;SDS011;55638;51.122;13.606;2023-04-28T00:14:59;7.80;;;6.30;;
68655;SDS011;55638;51.122;13.606;2023-04-28T00:16:32;8.57;;;5.43;;
68655;SDS011;55638;51.122;13.606;2023-04-28T00:18:04;6.55;;;5.70;;
68655;SDS011;55638;51.122;13.606;2023-04-28T00:19:36;9.25;;;5.88;;
68655;SDS011;55638;51.122;13.606;2023-04-28T00:21:09;8.70;;;5.82;;
68655;SDS011;55638;51.122;13.606;2023-04-28T00:22:41;7.82;;;6.50;;
68655;SDS011;55638;51.122;13.606;2023-04-28T00:24:12;7.43;;;5.85;;
68655;SDS011;55638;51.122;13.606;2023-04-28T00:25:49;7.63;;;5.90;;
68655;SDS011;55638;51.122;13.606;2023-04-28T00:27:22;8.20;;;6.28;;
68655;SDS011;55638;51.122;13.606;2023-04-28T00:28:54;8.02;;;6.40;;
68655;SDS011;55638;51.122;13.606;2023-04-28T00:30:26;8.25;;;5.70;;
68655;SDS011;55638;51.122;13.606;2023-04-28T00:31:58;6.60;;;5.60;;
68655;SDS011;55638;51.122;13.606;2023-04-28T00:33:29;7.97;;;5.80;;
68655;SDS011;55638;51.122;13.606;2023-04-28T00:35:01;6.95;;;5.90;;
68655;SDS011;55638;51.122;13.606;2023-04-28T00:36:33;7.80;;;6.18;;
68655;SDS011;55638;51.122;13.606;2023-04-28T00:38:06;8.57;;;5.85;;
68655;SDS011;55638;51.122;13.606;2023-04-28T00:39:38;8.13;;;5.90;;
68655;SDS011;55638;51.122;13.606;2023-04-28T00:41:12;6.90;;;6.18;;
68655;SDS011;55638;51.122;13.606;2023-04-28T00:42:45;8.52;;;6.10;;
68655;SDS011;55638;51.122;13.606;2023-04-28T00:44:16;8.27;;;6.25;;
68655;SDS011;55638;51.122;13.606;2023-04-28T00:45:49;9.88;;;6.60;;
68655;SDS011;55638;51.122;13.606;2023-04-28T00:47:21;7.70;;;6.18;;
68655;SDS011;55638;51.122;13.606;2023-04-28T00:48:55;6.65;;;5.75;;
68655;SDS011;55638;51.122;13.606;2023-04-28T00:50:28;8.95;;;6.72;;
68655;SDS011;55638;51.122;13.606;2023-04-28T00:52:01;7.05;;;5.72;;
68655;SDS011;55638;51.122;13.606;2023-04-28T00:53:35;7.50;;;5.40;;
68655;SDS011;55638;51.122;13.606;2023-04-28T00:55:08;6.93;;;5.43;;
68655;SDS011;55638;51.122;13.606;2023-04-28T00:56:41;8.45;;;6.18;;
68655;SDS011;55638;51.122;13.606;2023-04-28T00:58:13;7.18;;;5.75;;
68655;SDS011;55638;51.122;13.606;2023-04-28T00:59:45;8.02;;;5.70;;
68655;SDS011;55638;51.122;13.606;2023-04-28T01:01:17;9.40;;;6.60;;
68655;SDS011;55638;51.122;13.606;2023-04-28T01:02:50;7.05;;;5.50;;
68655;SDS011;55638;51.122;13.606;2023-04-28T01:04:24;8.05;;;6.13;;
68655;SDS011;55638;51.122;13.606;2023-04-28T01:05:57;7.55;;;6.00;;
68655;SDS011;55638;51.122;13.606;2023-04-28T01:07:31;6.85;;;5.75;;
68655;SDS011;55638;51.122;13.606;2023-04-28T01:09:03;6.88;;;5.57;;
68655;SDS011;55638;51.122;13.606;2023-04-28T01:10:40;7.97;;;5.60;;
68655;SDS011;55638;51.122;13.606;2023-04-28T01:12:21;7.65;;;5.43;;
68655;SDS011;55638;51.122;13.606;2023-04-28T01:13:56;7.05;;;5.68;;
68655;SDS011;55638;51.122;13.606;2023-04-28T01:15:31;7.00;;;6.07;;
68655;SDS011;55638;51.122;13.606;2023-04-28T01:17:03;8.13;;;5.57;;
68655;SDS011;55638;51.122;13.606;2023-04-28T01:18:36;9.18;;;6.00;;
68655;SDS011;55638;51.122;13.606;2023-04-28T01:20:08;6.93;;;5.50;;
68655;SDS011;55638;51.122;13.606;2023-04-28T01:21:40;7.65;;;5.78;;
68655;SDS011;55638;51.122;13.606;2023-04-28T01:23:24;5.97;;;5.35;;
68655;SDS011;55638;51.122;13.606;2023-04-28T01:24:56;6.50;;;4.60;;
68655;SDS011;55638;51.122;13.606;2023-04-28T01:26:30;5.45;;;4.80;;
68655;SDS011;55638;51.122;13.606;2023-04-28T01:28:01;6.82;;;5.25;;
68655;SDS011;55638;51.122;13.606;2023-04-28T01:29:33;7.40;;;5.38;;
68655;SDS011;55638;51.122;13.606;2023-04-28T01:31:05;7.03;;;5.05;;
68655;SDS011;55638;51.122;13.606;2023-04-28T01:32:37;5.55;;;5.00;;
68655;SDS011;55638;51.122;13.606;2023-04-28T01:34:09;5.85;;;4.95;;
68655;SDS011;55638;51.122;13.606;2023-04-28T01:35:41;5.40;;;4.65;;
68655;SDS011;55638;51.122;13.606;2023-04-28T01:37:13;5.38;;;4.80;;
68655;SDS011;55638;51.122;13.606;2023-04-28T01:38:45;4.85;;;4.35;;
68655;SDS011;55638;51.122;13.606;2023-04-28T01:40:17;6.10;;;5.40;;
68655;SDS011;55638;51.122;13.606;2023-04-28T01:41:49;7.03;;;4.90;;
68655;SDS011;55638;51.122;13.606;2023-04-28T01:43:21;6.57;;;5.05;;
68655;SDS011;55638;51.122;13.606;2023-04-28T01:44:53;6.50;;;5.18;;
68655;SDS011;55638;51.122;13.606;2023-04-28T01:46:25;6.00;;;5.15;;
68655;SDS011;55638;51.122;13.606;2023-04-28T01:47:57;5.45;;;4.35;;
68655;SDS011;55638;51.122;13.606;2023-04-28T01:49:29;6.30;;;4.88;;
68655;SDS011;55638;51.122;13.606;2023-04-28T01:51:01;5.50;;;4.60;;
68655;SDS011;55638;51.122;13.606;2023-04-28T01:52:33;7.13;;;5.03;;
68655;SDS011;55638;51.122;13.606;2023-04-28T01:54:06;5.78;;;5.03;;
68655;SDS011;55638;51.122;13.606;2023-04-28T01:55:38;6.28;;;5.00;;
68655;SDS011;55638;51.122;13.606;2023-04-28T01:57:10;5.45;;;4.53;;
68655;SDS011;55638;51.122;13.606;2023-04-28T01:58:42;5.45;;;4.80;;
68655;SDS011;55638;51.122;13.606;2023-04-28T02:00:14;5.60;;;4.90;;
68655;SDS011;55638;51.122;13.606;2023-04-28T02:01:52;5.85;;;4.95;;
68655;SDS011;55638;51.122;13.606;2023-04-28T02:03:24;6.57;;;4.70;;
68655;SDS011;55638;51.122;13.606;2023-04-28T02:04:57;6.05;;;4.85;;
68655;SDS011;55638;51.122;13.606;2023-04-28T02:06:29;5.85;;;4.82;;
68655;SDS011;55638;51.122;13.606;2023-04-28T02:08:02;6.35;;;4.63;;
68655;SDS011;55638;51.122;13.606;2023-04-28T02:09:34;6.70;;;4.95;;
68655;SDS011;55638;51.122;13.606;2023-04-28T02:11:05;5.30;;;4.13;;
68655;SDS011;55638;51.122;13.606;2023-04-28T02:12:37;7.20;;;4.68;;
68655;SDS011;55638;51.122;13.606;2023-04-28T02:14:09;5.85;;;4.57;;
68655;SDS011;55638;51.122;13.606;2023-04-28T02:15:41;6.05;;;5.20;;
68655;SDS011;55638;51.122;13.606;2023-04-28T02:17:14;7.05;;;5.30;;
68655;SDS011;55638;51.122;13.606;2023-04-28T02:18:46;5.20;;;4.60;;
68655;SDS011;55638;51.122;13.606;2023-04-28T02:20:18;6.45;;;5.07;;
68655;SDS011;55638;51.122;13.606;2023-04-28T02:21:52;7.50;;;5.20;;
68655;SDS011;55638;51.122;13.606;2023-04-28T02:23:23;5.75;;;5.03;;
68655;SDS011;55638;51.122;13.606;2023-04-28T02:24:56;7.03;;;5.20;;
68655;SDS011;55638;51.122;13.606;2023-04-28T02:26:27;6.22;;;4.97;;
68655;SDS011;55638;51.122;13.606;2023-04-28T02:27:59;7.05;;;5.15;;
68655;SDS011;55638;51.122;13.606;2023-04-28T02:29:31;6.10;;;5.32;;
68655;SDS011;55638;51.122;13.606;2023-04-28T02:31:09;7.53;;;4.95;;
68655;SDS011;55638;51.122;13.606;2023-04-28T02:32:42;6.05;;;5.10;;
68655;SDS011;55638;51.122;13.606;2023-04-28T02:34:14;6.53;;;5.38;;
68655;SDS011;55638;51.122;13.606;2023-04-28T02:35:46;6.97;;;5.70;;
68655;SDS011;55638;51.122;13.606;2023-04-28T02:37:18;7.75;;;5.30;;
68655;SDS011;55638;51.122;13.606;2023-04-28T02:38:52;6.13;;;5.18;;
68655;SDS011;55638;51.122;13.606;2023-04-28T02:40:24;8.70;;;5.50;;
68655;SDS011;55638;51.122;13.606;2023-04-28T02:41:56;6.80;;;5.38;;
68655;SDS011;55638;51.122;13.606;2023-04-28T02:43:28;7.28;;;5.50;;
68655;SDS011;55638;51.122;13.606;2023-04-28T02:45:00;9.15;;;5.93;;
68655;SDS011;55638;51.122;13.606;2023-04-28T02:46:32;7.10;;;5.70;;
68655;SDS011;55638;51.122;13.606;2023-04-28T02:48:04;8.20;;;5.88;;
68655;SDS011;55638;51.122;13.606;2023-04-28T02:49:37;5.63;;;4.60;;
68655;SDS011;55638;51.122;13.606;2023-04-28T02:51:09;6.60;;;5.22;;
68655;SDS011;55638;51.122;13.606;2023-04-28T02:52:41;8.07;;;5.15;;
68655;SDS011;55638;51.122;13.606;2023-04-28T02:54:13;6.65;;;4.93;;
68655;SDS011;55638;51.122;13.606;2023-04-28T02:55:46;9.18;;;5.18;;
68655;SDS011;55638;51.122;13.606;2023-04-28T02:57:18;8.48;;;5.40;;
68655;SDS011;55638;51.122;13.606;2023-04-28T02:58:50;5.93;;;4.82;;
68655;SDS011;55638;51.122;13.606;2023-04-28T03:00:21;6.40;;;5.13;;
68655;SDS011;55638;51.122;13.606;2023-04-28T03:01:54;6.97;;;5.25;;
68655;SDS011;55638;51.122;13.606;2023-04-28T03:03:26;7.65;;;5.40;;
68655;SDS011;55638;51.122;13.606;2023-04-28T03:04:58;7.05;;;5.43;;
68655;SDS011;55638;51.122;13.606;2023-04-28T03:06:30;7.18;;;5.57;;
68655;SDS011;55638;51.122;13.606;2023-04-28T03:08:03;7.75;;;5.68;;
68655;SDS011;55638;51.122;13.606;2023-04-28T03:09:35;6.50;;;4.97;;
68655;SDS011;55638;51.122;13.606;2023-04-28T03:11:07;6.30;;;5.28;;
68655;SDS011;55638;51.122;13.606;2023-04-28T03:12:39;7.28;;;5.45;;
68655;SDS011;55638;51.122;13.606;2023-04-28T03:14:11;8.10;;;6.07;;
68655;SDS011;55638;51.122;13.606;2023-04-28T03:15:43;8.38;;;5.68;;
68655;SDS011;55638;51.122;13.606;2023-04-28T03:17:15;7.88;;;5.53;;
68655;SDS011;55638;51.122;13.606;2023-04-28T03:18:47;7.13;;;5.38;;
68655;SDS011;55638;51.122;13.606;2023-04-28T03:20:19;7.32;;;5.70;;
68655;SDS011;55638;51.122;13.606;2023-04-28T03:21:51;6.25;;;4.80;;
68655;SDS011;55638;51.122;13.606;2023-04-28T03:23:23;5.35;;;4.75;;
68655;SDS011;55638;51.122;13.606;2023-04-28T03:24:54;7.18;;;4.78;;
68655;SDS011;55638;51.122;13.606;2023-04-28T03:26:28;8.00;;;5.47;;
68655;SDS011;55638;51.122;13.606;2023-04-28T03:28:01;6.53;;;5.07;;
68655;SDS011;55638;51.122;13.606;2023-04-28T03:29:34;6.55;;;5.00;;
68655;SDS011;55638;51.122;13.606;2023-04-28T03:31:05;5.13;;;4.57;;
68655;SDS011;55638;51.122;13.606;2023-04-28T03:32:37;6.70;;;4.78;;
68655;SDS011;55638;51.122;13.606;2023-04-28T03:34:10;7.93;;;5.30;;
68655;SDS011;55638;51.122;13.606;2023-04-28T03:35:42;7.75;;;5.93;;
68655;SDS011;55638;51.122;13.606;2023-04-28T03:37:14;10.13;;;5.90;;
68655;SDS011;55638;51.122;13.606;2023-04-28T03:38:46;7.00;;;5.85;;
68655;SDS011;55638;51.122;13.606;2023-04-28T03:40:18;7.35;;;5.50;;
68655;SDS011;55638;51.122;13.606;2023-04-28T03:42:13;6.82;;;4.75;;
68655;SDS011;55638;51.122;13.606;2023-04-28T03:44:11;5.50;;;4.40;;
68655;SDS011;55638;51.122;13.606;2023-04-28T03:45:51;6.32;;;4.72;;
68655;SDS011;55638;51.122;13.606;2023-04-28T03:47:23;5.88;;;4.75;;
68655;SDS011;55638;51.122;13.606;2023-04-28T03:48:55;7.50;;;4.57;;
68655;SDS011;55638;51.122;13.606;2023-04-28T03:50:27;9.82;;;4.65;;
68655;SDS011;55638;51.122;13.606;2023-04-28T03:52:00;6.47;;;4.40;;
68655;SDS011;55638;51.122;13.606;2023-04-28T03:53:32;5.75;;;4.80;;
68655;SDS011;55638;51.122;13.606;2023-04-28T03:55:04;7.20;;;4.70;;
68655;SDS011;55638;51.122;13.606;2023-04-28T03:56:36;6.43;;;4.93;;
68655;SDS011;55638;51.122;13.606;2023-04-28T03:58:08;5.70;;;4.55;;
68655;SDS011;55638;51.122;13.606;2023-04-28T03:59:40;6.18;;;4.90;;
68655;SDS011;55638;51.122;13.606;2023-04-28T04:01:14;8.25;;;4.82;;
68655;SDS011;55638;51.122;13.606;2023-04-28T04:02:45;5.93;;;4.32;;
68655;SDS011;55638;51.122;13.606;2023-04-28T04:04:19;7.65;;;4.68;;
68655;SDS011;55638;51.122;13.606;2023-04-28T04:05:52;6.93;;;4.60;;
68655;SDS011;55638;51.122;13.606;2023-04-28T04:07:25;7.32;;;5.35;;
68655;SDS011;55638;51.122;13.606;2023-04-28T04:08:57;5.82;;;5.05;;
68655;SDS011;55638;51.122;13.606;2023-04-28T04:10:29;6.32;;;4.70;;
68655;SDS011;55638;51.122;13.606;2023-04-28T04:12:02;7.65;;;5.35;;
68655;SDS011;55638;51.122;13.606;2023-04-28T04:13:34;6.55;;;5.38;;
68655;SDS011;55638;51.122;13.606;2023-04-28T04:15:09;7.40;;;5.13;;
68655;SDS011;55638;51.122;13.606;2023-04-28T04:16:43;7.07;;;5.57;;
68655;SDS011;55638;51.122;13.606;2023-04-28T04:18:17;10.63;;;6.18;;
68655;SDS011;55638;51.122;13.606;2023-04-28T04:20:12;8.55;;;5.70;;
68655;SDS011;55638;51.122;13.606;2023-04-28T04:21:44;6.03;;;5.28;;
68655;SDS011;55638;51.122;13.606;2023-04-28T04:23:16;8.02;;;5.32;;
68655;SDS011;55638;51.122;13.606;2023-04-28T04:24:48;7.13;;;5.10;;
68655;SDS011;55638;51.122;13.606;2023-04-28T04:26:20;5.88;;;5.10;;
68655;SDS011;55638;51.122;13.606;2023-04-28T04:27:54;8.00;;;5.50;;
68655;SDS011;55638;51.122;13.606;2023-04-28T04:29:26;8.32;;;5.68;;
68655;SDS011;55638;51.122;13.606;2023-04-28T04:30:58;5.88;;;5.20;;
68655;SDS011;55638;51.122;13.606;2023-04-28T04:32:30;7.20;;;5.10;;
68655;SDS011;55638;51.122;13.606;2023-04-28T04:34:02;8.27;;;5.80;;
68655;SDS011;55638;51.122;13.606;2023-04-28T04:35:33;8.30;;;6.47;;
68655;SDS011;55638;51.122;13.606;2023-04-28T04:37:05;6.82;;;5.55;;
68655;SDS011;55638;51.122;13.606;2023-04-28T04:38:40;6.85;;;5.38;;
68655;SDS011;55638;51.122;13.606;2023-04-28T04:40:19;7.10;;;5.30;;
68655;SDS011;55638;51.122;13.606;2023-04-28T04:41:53;8.35;;;5.55;;
68655;SDS011;55638;51.122;13.606;2023-04-28T04:43:48;7.82;;;5.90;;
68655;SDS011;55638;51.122;13.606;2023-04-28T04:45:20;7.22;;;5.15;;
68655;SDS011;55638;51.122;13.606;2023-04-28T04:46:53;6.65;;;5.40;;
68655;SDS011;55638;51.122;13.606;2023-04-28T04:48:25;6.20;;;5.43;;
68655;SDS011;55638;51.122;13.606;2023-04-28T04:49:57;8.10;;;6.05;;
68655;SDS011;55638;51.122;13.606;2023-04-28T04:51:29;12.13;;;6.15;;
68655;SDS011;55638;51.122;13.606;2023-04-28T04:53:01;9.43;;;6.45;;
68655;SDS011;55638;51.122;13.606;2023-04-28T04:54:33;9.05;;;5.65;;
68655;SDS011;55638;51.122;13.606;2023-04-28T04:56:05;7.00;;;5.30;;
68655;SDS011;55638;51.122;13.606;2023-04-28T04:57:39;8.50;;;6.18;;
68655;SDS011;55638;51.122;13.606;2023-04-28T04:59:15;6.97;;;5.78;;
68655;SDS011;55638;51.122;13.606;2023-04-28T05:00:52;7.65;;;5.80;;
68655;SDS011;55638;51.122;13.606;2023-04-28T05:02:24;7.68;;;6.03;;
68655;SDS011;55638;51.122;13.606;2023-04-28T05:03:56;7.22;;;5.38;;
68655;SDS011;55638;51.122;13.606;2023-04-28T05:05:29;7.72;;;5.72;;
68655;SDS011;55638;51.122;13.606;2023-04-28T05:07:10;7.57;;;5.30;;
68655;SDS011;55638;51.122;13.606;2023-04-28T05:08:44;6.20;;;5.30;;
68655;SDS011;55638;51.122;13.606;2023-04-28T05:10:16;8.50;;;5.20;;
68655;SDS011;55638;51.122;13.606;2023-04-28T05:11:48;7.90;;;5.40;;
68655;SDS011;55638;51.122;13.606;2023-04-28T05:13:20;6.65;;;5.70;;
68655;SDS011;55638;51.122;13.606;2023-04-28T05:14:58;8.10;;;5.70;;
68655;SDS011;55638;51.122;13.606;2023-04-28T05:16:30;8.20;;;5.72;;
68655;SDS011;55638;51.122;13.606;2023-04-28T05:18:06;8.13;;;5.90;;
68655;SDS011;55638;51.122;13.606;2023-04-28T05:19:41;7.53;;;5.65;;
68655;SDS011;55638;51.122;13.606;2023-04-28T05:21:13;8.95;;;5.70;;
68655;SDS011;55638;51.122;13.606;2023-04-28T05:22:45;7.63;;;5.70;;
68655;SDS011;55638;51.122;13.606;2023-04-28T05:24:17;8.20;;;6.38;;
68655;SDS011;55638;51.122;13.606;2023-04-28T05:25:52;6.97;;;5.82;;
68655;SDS011;55638;51.122;13.606;2023-04-28T05:27:24;7.80;;;5.13;;
68655;SDS011;55638;51.122;13.606;2023-04-28T05:28:57;8.55;;;6.22;;
68655;SDS011;55638;51.122;13.606;2023-04-28T05:30:29;9.75;;;6.55;;
68655;SDS011;55638;51.122;13.606;2023-04-28T05:32:01;7.95;;;6.43;;
68655;SDS011;55638;51.122;13.606;2023-04-28T05:33:34;9.85;;;5.80;;
68655;SDS011;55638;51.122;13.606;2023-04-28T05:35:06;7.47;;;5.90;;
68655;SDS011;55638;51.122;13.606;2023-04-28T05:36:38;10.95;;;6.22;;
68655;SDS011;55638;51.122;13.606;2023-04-28T05:38:12;9.45;;;6.13;;
68655;SDS011;55638;51.122;13.606;2023-04-28T05:39:46;11.68;;;6.60;;
68655;SDS011;55638;51.122;13.606;2023-04-28T05:41:18;9.73;;;6.38;;
68655;SDS011;55638;51.122;13.606;2023-04-28T05:42:50;8.45;;;5.80;;
68655;SDS011;55638;51.122;13.606;2023-04-28T05:44:22;10.15;;;6.07;;
68655;SDS011;55638;51.122;13.606;2023-04-28T05:45:54;8.80;;;5.60;;
68655;SDS011;55638;51.122;13.606;2023-04-28T05:47:26;7.95;;;6.38;;
68655;SDS011;55638;51.122;13.606;2023-04-28T05:48:59;9.85;;;6.03;;
68655;SDS011;55638;51.122;13.606;2023-04-28T05:50:36;8.82;;;6.10;;
68655;SDS011;55638;51.122;13.606;2023-04-28T05:52:09;9.73;;;5.88;;
68655;SDS011;55638;51.122;13.606;2023-04-28T05:53:41;8.15;;;6.20;;
68655;SDS011;55638;51.122;13.606;2023-04-28T05:55:13;7.95;;;5.97;;
68655;SDS011;55638;51.122;13.606;2023-04-28T05:56:46;11.52;;;6.15;;
68655;SDS011;55638;51.122;13.606;2023-04-28T05:58:18;10.27;;;6.15;;
68655;SDS011;55638;51.122;13.606;2023-04-28T05:59:50;9.68;;;5.85;;
68655;SDS011;55638;51.122;13.606;2023-04-28T06:01:22;10.73;;;7.35;;
68655;SDS011;55638;51.122;13.606;2023-04-28T06:02:54;9.57;;;6.53;;
68655;SDS011;55638;51.122;13.606;2023-04-28T06:04:26;8.00;;;6.35;;
68655;SDS011;55638;51.122;13.606;2023-04-28T06:05:58;7.95;;;6.22;;
68655;SDS011;55638;51.122;13.606;2023-04-28T06:07:30;10.18;;;6.50;;
68655;SDS011;55638;51.122;13.606;2023-04-28T06:09:02;8.80;;;6.65;;
68655;SDS011;55638;51.122;13.606;2023-04-28T06:10:36;9.43;;;5.85;;
68655;SDS011;55638;51.122;13.606;2023-04-28T06:12:08;10.20;;;6.68;;
68655;SDS011;55638;51.122;13.606;2023-04-28T06:13:40;8.25;;;5.97;;
68655;SDS011;55638;51.122;13.606;2023-04-28T06:15:12;8.90;;;6.35;;
68655;SDS011;55638;51.122;13.606;2023-04-28T06:16:44;9.18;;;6.70;;
68655;SDS011;55638;51.122;13.606;2023-04-28T06:18:16;11.35;;;6.30;;
68655;SDS011;55638;51.122;13.606;2023-04-28T06:19:47;10.52;;;6.25;;
68655;SDS011;55638;51.122;13.606;2023-04-28T06:21:21;9.00;;;6.20;;
68655;SDS011;55638;51.122;13.606;2023-04-28T06:22:55;8.30;;;5.82;;
68655;SDS011;55638;51.122;13.606;2023-04-28T06:24:27;7.97;;;5.60;;
68655;SDS011;55638;51.122;13.606;2023-04-28T06:26:00;8.02;;;5.20;;
68655;SDS011;55638;51.122;13.606;2023-04-28T06:27:32;9.75;;;5.70;;
68655;SDS011;55638;51.122;13.606;2023-04-28T06:29:04;7.63;;;5.93;;
68655;SDS011;55638;51.122;13.606;2023-04-28T06:30:36;8.10;;;5.90;;
68655;SDS011;55638;51.122;13.606;2023-04-28T06:32:08;9.57;;;6.05;;
68655;SDS011;55638;51.122;13.606;2023-04-28T06:33:40;8.18;;;5.97;;
68655;SDS011;55638;51.122;13.606;2023-04-28T06:35:12;8.00;;;6.03;;
68655;SDS011;55638;51.122;13.606;2023-04-28T06:36:44;8.63;;;5.80;;
68655;SDS011;55638;51.122;13.606;2023-04-28T06:38:16;8.57;;;5.72;;
68655;SDS011;55638;51.122;13.606;2023-04-28T06:39:48;8.52;;;5.60;;
68655;SDS011;55638;51.122;13.606;2023-04-28T06:41:20;7.35;;;5.32;;
68655;SDS011;55638;51.122;13.606;2023-04-28T06:42:54;8.57;;;5.75;;
68655;SDS011;55638;51.122;13.606;2023-04-28T06:44:39;9.63;;;5.90;;
68655;SDS011;55638;51.122;13.606;2023-04-28T06:46:11;9.10;;;5.60;;
68655;SDS011;55638;51.122;13.606;2023-04-28T06:47:42;8.02;;;5.57;;
68655;SDS011;55638;51.122;13.606;2023-04-28T06:49:15;8.50;;;5.78;;
68655;SDS011;55638;51.122;13.606;2023-04-28T06:50:46;10.13;;;5.75;;
68655;SDS011;55638;51.122;13.606;2023-04-28T06:52:18;9.45;;;5.40;;
68655;SDS011;55638;51.122;13.606;2023-04-28T06:54:03;7.63;;;5.00;;
68655;SDS011;55638;51.122;13.606;2023-04-28T06:55:37;8.85;;;4.80;;
68655;SDS011;55638;51.122;13.606;2023-04-28T06:57:09;5.50;;;4.85;;
68655;SDS011;55638;51.122;13.606;2023-04-28T06:58:41;7.60;;;5.55;;
68655;SDS011;55638;51.122;13.606;2023-04-28T07:00:13;9.63;;;5.28;;
68655;SDS011;55638;51.122;13.606;2023-04-28T07:01:45;6.45;;;4.63;;
68655;SDS011;55638;51.122;13.606;2023-04-28T07:03:17;10.02;;;4.97;;
68655;SDS011;55638;51.122;13.606;2023-04-28T07:04:49;7.30;;;4.63;;
68655;SDS011;55638;51.122;13.606;2023-04-28T07:06:21;7.68;;;4.50;;
68655;SDS011;55638;51.122;13.606;2023-04-28T07:07:53;8.20;;;5.20;;
68655;SDS011;55638;51.122;13.606;2023-04-28T07:09:25;6.65;;;4.90;;
68655;SDS011;55638;51.122;13.606;2023-04-28T07:10:57;5.72;;;4.63;;
68655;SDS011;55638;51.122;13.606;2023-04-28T07:12:29;8.38;;;4.55;;
68655;SDS011;55638;51.122;13.606;2023-04-28T07:14:01;5.95;;;4.47;;
68655;SDS011;55638;51.122;13.606;2023-04-28T07:15:33;8.02;;;4.55;;
68655;SDS011;55638;51.122;13.606;2023-04-28T07:17:05;7.90;;;5.00;;
68655;SDS011;55638;51.122;13.606;2023-04-28T07:18:37;5.68;;;4.50;;
68655;SDS011;55638;51.122;13.606;2023-04-28T07:20:09;7.45;;;4.10;;
68655;SDS011;55638;51.122;13.606;2023-04-28T07:21:41;8.45;;;4.50;;
68655;SDS011;55638;51.122;13.606;2023-04-28T07:23:13;6.45;;;4.68;;
68655;SDS011;55638;51.122;13.606;2023-04-28T07:24:45;4.97;;;4.03;;
68655;SDS011;55638;51.122;13.606;2023-04-28T07:26:17;9.70;;;4.30;;
68655;SDS011;55638;51.122;13.606;2023-04-28T07:27:49;8.63;;;4.50;;
68655;SDS011;55638;51.122;13.606;2023-04-28T07:29:21;5.85;;;4.32;;
68655;SDS011;55638;51.122;13.606;2023-04-28T07:30:53;6.43;;;4.70;;
68655;SDS011;55638;51.122;13.606;2023-04-28T07:32:24;6.70;;;4.47;;
68655;SDS011;55638;51.122;13.606;2023-04-28T07:33:56;7.57;;;4.90;;
68655;SDS011;55638;51.122;13.606;2023-04-28T07:35:28;8.20;;;5.13;;
68655;SDS011;55638;51.122;13.606;2023-04-28T07:37:00;8.90;;;4.97;;
68655;SDS011;55638;51.122;13.606;2023-04-28T07:38:33;5.90;;;4.38;;
68655;SDS011;55638;51.122;13.606;2023-04-28T07:40:06;6.93;;;4.28;;
68655;SDS011;55638;51.122;13.606;2023-04-28T07:41:38;6.65;;;4.43;;
68655;SDS011;55638;51.122;13.606;2023-04-28T07:43:10;8.35;;;4.57;;
68655;SDS011;55638;51.122;13.606;2023-04-28T07:44:42;5.43;;;4.45;;
68655;SDS011;55638;51.122;13.606;2023-04-28T07:46:14;9.57;;;4.57;;
68655;SDS011;55638;51.122;13.606;2023-04-28T07:47:46;6.25;;;4.22;;
68655;SDS011;55638;51.122;13.606;2023-04-28T07:49:18;8.57;;;4.25;;
68655;SDS011;55638;51.122;13.606;2023-04-28T07:50:50;6.15;;;4.05;;
68655;SDS011;55638;51.122;13.606;2023-04-28T07:52:22;8.18;;;4.28;;
68655;SDS011;55638;51.122;13.606;2023-04-28T07:53:54;6.50;;;3.92;;
68655;SDS011;55638;51.122;13.606;2023-04-28T07:55:26;5.78;;;4.30;;
68655;SDS011;55638;51.122;13.606;2023-04-28T07:56:58;5.35;;;4.20;;
68655;SDS011;55638;51.122;13.606;2023-04-28T07:58:30;8.73;;;4.47;;
68655;SDS011;55638;51.122;13.606;2023-04-28T08:00:02;6.15;;;4.10;;
68655;SDS011;55638;51.122;13.606;2023-04-28T08:01:42;6.25;;;4.32;;
68655;SDS011;55638;51.122;13.606;2023-04-28T08:03:14;6.55;;;3.92;;
68655;SDS011;55638;51.122;13.606;2023-04-28T08:04:46;5.53;;;3.72;;
68655;SDS011;55638;51.122;13.606;2023-04-28T08:06:18;6.68;;;4.15;;
68655;SDS011;55638;51.122;13.606;2023-04-28T08:07:50;6.13;;;3.95;;
68655;SDS011;55638;51.122;13.606;2023-04-28T08:09:22;6.15;;;4.50;;
68655;SDS011;55638;51.122;13.606;2023-04-28T08:10:54;5.85;;;3.70;;
68655;SDS011;55638;51.122;13.606;2023-04-28T08:12:26;5.90;;;3.83;;
68655;SDS011;55638;51.122;13.606;2023-04-28T08:13:58;6.95;;;4.00;;
68655;SDS011;55638;51.122;13.606;2023-04-28T08:15:33;6.03;;;4.05;;
68655;SDS011;55638;51.122;13.606;2023-04-28T08:17:05;4.78;;;3.65;;
68655;SDS011;55638;51.122;13.606;2023-04-28T08:18:37;4.57;;;3.72;;
68655;SDS011;55638;51.122;13.606;2023-04-28T08:20:10;4.10;;;3.13;;
68655;SDS011;55638;51.122;13.606;2023-04-28T08:21:42;7.88;;;3.53;;
68655;SDS011;55638;51.122;13.606;2023-04-28T08:23:14;6.22;;;3.50;;
68655;SDS011;55638;51.122;13.606;2023-04-28T08:24:46;5.65;;;3.78;;
68655;SDS011;55638;51.122;13.606;2023-04-28T08:26:18;7.25;;;3.67;;
68655;SDS011;55638;51.122;13.606;2023-04-28T08:27:50;4.75;;;3.55;;
68655;SDS011;55638;51.122;13.606;2023-04-28T08:29:22;6.28;;;3.95;;
68655;SDS011;55638;51.122;13.606;2023-04-28T08:30:56;5.97;;;3.33;;
68655;SDS011;55638;51.122;13.606;2023-04-28T08:32:29;5.95;;;3.80;;
68655;SDS011;55638;51.122;13.606;2023-04-28T08:34:01;4.45;;;3.20;;
68655;SDS011;55638;51.122;13.606;2023-04-28T08:35:33;8.00;;;4.10;;
68655;SDS011;55638;51.122;13.606;2023-04-28T08:37:05;5.53;;;3.85;;
68655;SDS011;55638;51.122;13.606;2023-04-28T08:38:37;4.90;;;3.30;;
68655;SDS011;55638;51.122;13.606;2023-04-28T08:40:09;6.38;;;3.90;;
68655;SDS011;55638;51.122;13.606;2023-04-28T08:41:42;6.05;;;3.63;;
68655;SDS011;55638;51.122;13.606;2023-04-28T08:43:13;6.50;;;3.60;;
68655;SDS011;55638;51.122;13.606;2023-04-28T08:44:46;5.18;;;3.53;;
68655;SDS011;55638;51.122;13.606;2023-04-28T08:46:20;7.85;;;3.78;;
68655;SDS011;55638;51.122;13.606;2023-04-28T08:47:53;5.70;;;3.85;;
68655;SDS011;55638;51.122;13.606;2023-04-28T08:49:30;4.47;;;3.38;;
68655;SDS011;55638;51.122;13.606;2023-04-28T08:51:07;7.20;;;3.60;;
68655;SDS011;55638;51.122;13.606;2023-04-28T08:52:40;4.65;;;3.60;;
68655;SDS011;55638;51.122;13.606;2023-04-28T08:54:14;5.32;;;3.80;;
68655;SDS011;55638;51.122;13.606;2023-04-28T08:55:57;5.53;;;3.53;;
68655;SDS011;55638;51.122;13.606;2023-04-28T08:57:34;6.78;;;3.58;;
68655;SDS011;55638;51.122;13.606;2023-04-28T08:59:11;6.72;;;3.85;;
68655;SDS011;55638;51.122;13.606;2023-04-28T09:00:43;6.35;;;3.83;;
68655;SDS011;55638;51.122;13.606;2023-04-28T09:02:15;4.53;;;3.15;;
68655;SDS011;55638;51.122;13.606;2023-04-28T09:03:47;5.10;;;3.67;;
68655;SDS011;55638;51.122;13.606;2023-04-28T09:05:20;4.97;;;2.95;;
68655;SDS011;55638;51.122;13.606;2023-04-28T09:06:52;6.75;;;3.83;;
68655;SDS011;55638;51.122;13.606;2023-04-28T09:08:24;3.75;;;2.90;;
68655;SDS011;55638;51.122;13.606;2023-04-28T09:11:49;5.53;;;3.03;;
68655;SDS011;55638;51.122;13.606;2023-04-28T09:13:26;3.67;;;2.92;;